createdAt,value
2016-04-20T08:29:22.505Z,1022.32
2016-04-20T08:32:34.482Z,1022.28
2016-04-20T08:35:50.930Z,1022.38
2016-04-20T08:38:54.751Z,1022.38
2016-04-20T08:42:06.915Z,1022.38
2016-04-20T08:45:17.580Z,1022.42
2016-04-20T08:48:30.135Z,1022.5
2016-04-20T08:51:46.628Z,1022.48
2016-04-20T08:54:54.372Z,1022.54
2016-04-20T08:57:58.147Z,1022.52
2016-04-20T09:01:08.530Z,1022.48
2016-04-20T09:04:21.146Z,1022.5
2016-04-20T09:07:33.593Z,1022.52
2016-04-20T09:10:50.025Z,1022.62
2016-04-20T09:13:53.940Z,1022.42
2016-04-20T09:17:06.384Z,1022.64
2016-04-20T09:20:19.315Z,1022.46
2016-04-20T09:23:32.306Z,1022.54
2016-04-20T09:26:49.113Z,1022.52
2016-04-20T09:29:52.919Z,1022.62
2016-04-20T09:33:05.661Z,1022.72
2016-04-20T09:36:17.419Z,1022.8
2016-04-20T09:39:29.787Z,1022.8
2016-04-20T09:42:46.904Z,1022.84
2016-04-20T09:45:50.914Z,1022.74
2016-04-20T09:49:03.673Z,1022.88
2016-04-20T09:52:16.602Z,1022.76
2016-04-20T09:55:29.221Z,1022.86
2016-04-20T09:58:45.588Z,1022.84
2016-04-20T10:01:53.551Z,1022.72
2016-04-20T10:04:57.512Z,1022.68
2016-04-20T10:08:09.973Z,1022.78
2016-04-20T10:11:22.623Z,1022.7
2016-04-20T10:14:35.490Z,1022.52
2016-04-20T10:17:52.314Z,1022.66
2016-04-20T10:20:56.525Z,1022.44
2016-04-20T10:24:09.517Z,1022.54
2016-04-20T10:27:22.649Z,1022.58
2016-04-20T10:30:35.924Z,1022.4
2016-04-20T10:33:52.997Z,1022.54
2016-04-20T10:36:57.161Z,1022.34
2016-04-20T10:40:10.450Z,1022.44
2016-04-20T10:43:23.506Z,1022.56
2016-04-20T10:46:36.389Z,1022.5
2016-04-20T10:49:53.352Z,1022.56
2016-04-20T10:52:57.391Z,1022.5
2016-04-20T10:56:10.056Z,1022.54
2016-04-20T10:59:22.751Z,1022.5
2016-04-20T11:02:35.760Z,1022.46
2016-04-20T11:05:52.676Z,1022.46
2016-04-20T11:08:56.888Z,1022.58
2016-04-20T11:12:08.053Z,1022.62
2016-04-20T11:15:20.873Z,1022.48
2016-04-20T11:18:33.709Z,1022.48
2016-04-20T11:21:50.545Z,1022.38
2016-04-20T11:24:54.525Z,1022.36
2016-04-20T11:28:07.282Z,1022.46
2016-04-20T11:31:19.713Z,1022.52
2016-04-20T11:34:32.877Z,1022.4
2016-04-20T11:37:51.057Z,1022.52
2016-04-20T11:40:54.256Z,1022.42
2016-04-20T11:44:07.466Z,1022.48
2016-04-20T11:47:20.192Z,1022.54
2016-04-20T11:50:33.342Z,1022.44
2016-04-20T11:53:49.928Z,1022.48
2016-04-20T11:56:54.046Z,1022.48
2016-04-20T12:00:07.041Z,1022.48
2016-04-20T12:03:20.079Z,1022.38
2016-04-20T12:06:32.588Z,1022.42
2016-04-20T12:09:49.424Z,1022.28
2016-04-20T12:12:53.558Z,1022.36
2016-04-20T12:16:06.161Z,1022.42
2016-04-20T12:19:18.889Z,1022.46
2016-04-20T12:22:31.912Z,1022.3
2016-04-20T12:25:48.686Z,1022.32
2016-04-20T12:28:52.850Z,1022.4
2016-04-20T12:32:05.673Z,1022.42
2016-04-20T12:35:18.494Z,1022.34
2016-04-20T12:38:31.330Z,1022.34
2016-04-20T12:41:48.121Z,1022.3
2016-04-20T12:44:52.253Z,1022.24
2016-04-20T12:48:05.139Z,1022.32
2016-04-20T12:51:18.084Z,1022.34
2016-04-20T12:54:31.061Z,1022.36
2016-04-20T12:57:47.553Z,1022.26
2016-04-20T13:00:51.624Z,1022.2
2016-04-20T13:04:04.510Z,1022.34
2016-04-20T13:07:17.393Z,1022.36
2016-04-20T13:10:30.260Z,1022.38
2016-04-20T13:13:47.393Z,1022.38
2016-04-20T13:16:51.729Z,1022.36
2016-04-20T13:20:01.272Z,1022.2
2016-04-20T13:23:13.608Z,1022.26
2016-04-20T13:26:26.413Z,1022.22
2016-04-20T13:29:39.483Z,1022.34
2016-04-20T13:32:52.617Z,1022.12
2016-04-20T13:36:05.346Z,1022.12
2016-04-20T13:39:18.479Z,1022.2
2016-04-20T13:42:31.612Z,1022.18
2016-04-20T13:45:45.260Z,1022.12
2016-04-20T13:48:53.488Z,1022.2
2016-04-20T13:51:57.605Z,1022.16
2016-04-20T13:55:10.428Z,1022.14
2016-04-20T13:58:23.640Z,1022.22
2016-04-20T14:01:36.679Z,1022.18
2016-04-20T14:04:53.436Z,1022.24
2016-04-20T14:07:57.664Z,1022.16
2016-04-20T14:11:10.721Z,1022.24
2016-04-20T14:14:23.761Z,1022.28
2016-04-20T14:17:36.800Z,1022.18
2016-04-20T14:20:53.777Z,1022.2
2016-04-20T14:23:57.895Z,1022.08
2016-04-20T14:27:10.749Z,1022.12
2016-04-20T14:30:23.462Z,1022.2
2016-04-20T14:33:36.109Z,1022.16
2016-04-20T14:36:53.055Z,1022.06
2016-04-20T14:39:57.095Z,1022.12
2016-04-20T14:43:10.136Z,1022.1
2016-04-20T14:46:23.036Z,1022.06
2016-04-20T14:49:36.059Z,1022.08
2016-04-20T14:52:56.051Z,1022.12
2016-04-20T14:55:57.138Z,1022.02
2016-04-20T14:59:10.118Z,1022.02
2016-04-20T15:02:23.047Z,1021.98
2016-04-20T15:05:35.898Z,1022.02
2016-04-20T15:08:52.876Z,1022.04
2016-04-20T15:11:57.040Z,1022
2016-04-20T15:15:09.988Z,1022.02
2016-04-20T15:18:21.668Z,1021.98
2016-04-20T15:21:34.254Z,1021.94
2016-04-20T15:24:51.074Z,1021.94
2016-04-20T15:27:55.614Z,1021.96
2016-04-20T15:31:08.171Z,1021.94
2016-04-20T15:34:19.523Z,1021.77
2016-04-20T15:37:30.942Z,1021.98
2016-04-20T15:40:47.967Z,1021.98
2016-04-20T15:43:52.178Z,1021.94
2016-04-20T15:47:05.127Z,1021.96
2016-04-20T15:50:17.744Z,1021.96
2016-04-20T15:53:30.549Z,1022.06
2016-04-20T15:56:47.743Z,1021.94
2016-04-20T15:59:52.065Z,1022.04
2016-04-20T16:03:01.796Z,1021.98
2016-04-20T16:09:27.074Z,1021.92
2016-04-20T16:12:39.792Z,1021.91
2016-04-20T16:15:52.589Z,1021.92
2016-04-20T16:19:05.554Z,1021.96
2016-04-20T16:22:16.017Z,1021.92
2016-04-20T16:25:29.041Z,1021.96
2016-04-20T16:28:46.069Z,1021.98
2016-04-20T16:31:54.327Z,1021.91
2016-04-20T16:34:58.429Z,1021.85
2016-04-20T16:38:11.202Z,1021.98
2016-04-20T16:41:24.398Z,1021.83
2016-04-20T16:44:37.362Z,1021.89
2016-04-20T16:47:54.011Z,1021.87
2016-04-20T16:50:58.223Z,1021.89
2016-04-20T16:54:11.308Z,1021.98
2016-04-20T16:57:22.847Z,1021.87
2016-04-20T17:00:35.764Z,1022
2016-04-20T17:03:52.319Z,1021.89
2016-04-20T17:06:56.609Z,1021.91
2016-04-20T17:10:09.320Z,1021.83
2016-04-20T17:13:22.297Z,1021.89
2016-04-20T17:16:33.368Z,1021.83
2016-04-20T17:19:50.159Z,1021.87
2016-04-20T17:22:54.246Z,1021.83
2016-04-20T17:26:07.223Z,1021.87
2016-04-20T17:29:20.043Z,1021.71
2016-04-20T17:32:32.863Z,1021.89
2016-04-20T17:35:49.797Z,1021.81
2016-04-20T17:38:53.851Z,1021.79
2016-04-20T17:42:06.969Z,1021.85
2016-04-20T17:45:19.712Z,1021.94
2016-04-20T17:48:33.048Z,1021.92
2016-04-20T17:51:49.699Z,1022.02
2016-04-20T17:54:53.823Z,1021.96
2016-04-20T17:58:06.456Z,1021.94
2016-04-20T18:01:19.369Z,1022.02
2016-04-20T18:04:30.752Z,1022.06
2016-04-20T18:07:47.605Z,1022.16
2016-04-20T18:10:55.550Z,1022.3
2016-04-20T18:13:59.558Z,1022.24
2016-04-20T18:17:12.524Z,1022.24
2016-04-20T18:20:25.406Z,1022.1
2016-04-20T18:23:38.514Z,1022.32
2016-04-20T18:26:55.244Z,1022.22
2016-04-20T18:29:59.283Z,1022.2
2016-04-20T18:33:09.447Z,1022.28
2016-04-20T18:36:22.361Z,1022.32
2016-04-20T18:39:35.276Z,1022.34
2016-04-20T18:42:51.802Z,1022.26
2016-04-20T18:45:55.840Z,1022.28
2016-04-20T18:49:08.724Z,1022.3
2016-04-20T18:52:21.372Z,1022.2
2016-04-20T18:55:34.334Z,1022.34
2016-04-20T18:58:51.142Z,1022.24
2016-04-20T19:01:55.009Z,1022.44
2016-04-20T19:05:06.783Z,1022.44
2016-04-20T19:08:20.618Z,1022.46
2016-04-20T19:11:33.440Z,1022.48
2016-04-20T19:14:49.904Z,1022.46
2016-04-20T19:17:53.895Z,1022.46
2016-04-20T19:21:06.529Z,1022.52
2016-04-20T19:24:19.350Z,1022.58
2016-04-20T19:27:32.061Z,1022.62
2016-04-20T19:30:48.462Z,1022.56
2016-04-20T19:33:52.345Z,1022.56
2016-04-20T19:37:05.088Z,1022.6
2016-04-20T19:40:17.611Z,1022.6
2016-04-20T19:43:30.041Z,1022.54
2016-04-20T19:46:41.909Z,1022.64
2016-04-20T19:49:53.404Z,1022.74
2016-04-20T19:53:07.412Z,1022.66
2016-04-20T19:56:16.904Z,1022.58
2016-04-20T19:59:27.975Z,1022.68
2016-04-20T20:02:40.670Z,1022.74
2016-04-20T20:05:52.353Z,1022.7
2016-04-20T20:09:05.830Z,1022.54
2016-04-20T20:12:18.261Z,1022.64
2016-04-20T20:15:30.909Z,1022.6
2016-04-20T20:18:40.651Z,1022.54
2016-04-20T20:21:54.031Z,1022.58
2016-04-20T20:25:06.656Z,1022.54
2016-04-20T20:28:19.243Z,1022.62
2016-04-20T20:31:32.048Z,1022.52
2016-04-20T20:34:48.121Z,1022.46
2016-04-20T20:37:55.895Z,1022.6
2016-04-20T20:40:59.574Z,1022.6
2016-04-20T20:44:12.285Z,1022.6
2016-04-20T20:47:25.029Z,1022.54
2016-04-20T20:50:37.662Z,1022.58
2016-04-20T20:53:53.970Z,1022.62
2016-04-20T20:56:57.742Z,1022.66
2016-04-20T21:00:10.189Z,1022.66
2016-04-20T21:03:22.306Z,1022.68
2016-04-20T21:06:34.659Z,1022.6
2016-04-20T21:09:51.166Z,1022.6
2016-04-20T21:12:54.755Z,1022.68
2016-04-20T21:16:07.264Z,1022.68
2016-04-20T21:19:16.631Z,1022.64
2016-04-20T21:22:29.763Z,1022.7
2016-04-20T21:25:41.882Z,1022.7
2016-04-20T21:28:54.549Z,1022.76
2016-04-20T21:32:07.244Z,1022.7
2016-04-20T21:35:19.362Z,1022.62
2016-04-20T21:38:31.370Z,1022.68
2016-04-20T21:41:43.284Z,1022.78
2016-04-20T21:44:55.764Z,1022.7
2016-04-20T21:48:08.240Z,1022.62
2016-04-20T21:51:20.670Z,1022.62
2016-04-20T21:54:32.960Z,1022.78
2016-04-20T21:57:48.874Z,1022.74
2016-04-20T22:00:56.212Z,1022.8
2016-04-20T22:03:59.846Z,1022.68
2016-04-20T22:07:12.338Z,1022.8
2016-04-20T22:10:25.034Z,1022.74
2016-04-20T22:13:35.307Z,1022.76
2016-04-20T22:16:51.894Z,1022.7
2016-04-20T22:19:55.405Z,1022.72
2016-04-20T22:23:07.740Z,1022.72
2016-04-20T22:26:20.233Z,1022.58
2016-04-20T22:29:32.804Z,1022.6
2016-04-20T22:32:49.280Z,1022.52
2016-04-20T22:35:56.822Z,1022.66
2016-04-20T22:39:00.503Z,1022.56
2016-04-20T22:42:13.042Z,1022.52
2016-04-20T22:45:25.565Z,1022.52
2016-04-20T22:48:37.760Z,1022.62
2016-04-20T22:51:54.691Z,1022.6
2016-04-20T22:54:57.421Z,1022.7
2016-04-20T22:58:09.616Z,1022.68
2016-04-20T23:01:21.909Z,1022.68
2016-04-20T23:04:34.291Z,1022.62
2016-04-20T23:07:44.722Z,1022.68
2016-04-20T23:10:56.952Z,1022.64
2016-04-20T23:14:09.351Z,1022.72
2016-04-20T23:17:21.218Z,1022.66
2016-04-20T23:20:33.648Z,1022.8
2016-04-20T23:23:49.984Z,1022.72
2016-04-20T23:26:57.511Z,1022.7
2016-04-20T23:30:00.956Z,1022.76
2016-04-20T23:33:13.308Z,1022.78
2016-04-20T23:36:25.722Z,1022.7
2016-04-20T23:39:38.168Z,1022.62
2016-04-20T23:42:54.426Z,1022.66
2016-04-20T23:45:57.874Z,1022.64
2016-04-20T23:49:07.007Z,1022.68
2016-04-20T23:52:19.203Z,1022.48
2016-04-20T23:55:31.445Z,1022.52
2016-04-20T23:58:43.829Z,1022.48
